Tonic Sea — D5AZ8 — position and weather

sailwx.info

Track history (hours):
 
Tides and Currents Weather Stations Pressure Air Temp Water Temp Dewpoint Dewpoint Depression Visibility Wind Speed Wind Dir Waves Ship Positions

Tonic Sea

Last reported at 2016-Apr-19 10:30 UTC. Time now 2016-May-01 00:31 UTC.
Position N 28°14' W 016°07'.
Warning: this ship's position is 11 days out of date.

Length 229 m; draft 9.5 m.

Type: Cargo ship. MMSI: 636015479.

Date/timePositionNaut miles runAvg speedWind from/ knotsBaromVisibWave heightAir tempDewpointWater temp
2016-Apr-19 10:30N 28°14' W 016°07'1111.4
2016-Apr-19 09:33N 28°22' W 015°59'1211.6
2016-Apr-19 08:33N 28°31' W 015°51'1110.9
2016-Apr-19 07:33N 28°40' W 015°43'1010.5
2016-Apr-19 06:34N 28°47' W 015°35'1010.2
2016-Apr-19 05:33N 28°55' W 015°27'1010.3
2016-Apr-19 04:33N 29°02' W 015°19'  
2016-Apr-16 19:26N 35°59' W 005°32'910.1
2016-Apr-16 18:31N 36°03' W 005°22'5 4.1
2016-Apr-16 17:25N 36°07' W 005°22'0 0.1
2016-Apr-16 16:31N 36°07' W 005°22'0 0.0
2016-Apr-16 15:31N 36°07' W 005°22'0 0.0
2016-Apr-16 14:31N 36°07' W 005°22'0 0.1
2016-Apr-16 13:31N 36°07' W 005°22'0 0.0
2016-Apr-16 12:31N 36°07' W 005°22'0 0.0
2016-Apr-16 11:31N 36°07' W 005°22'0 0.1
2016-Apr-16 09:31N 36°08' W 005°22'1 0.7
2016-Apr-16 08:33N 36°07' W 005°22'2 1.6
2016-Apr-16 07:33N 36°06' W 005°21'4 4.1
2016-Apr-16 06:34N 36°07' W 005°16'2 1.6
2016-Apr-16 05:34N 36°08' W 005°15'1 1.1
2016-Apr-16 04:21N 36°07' W 005°15'18310.9
2016-Apr-15 11:33N 36°31' W 001°30'1211.8
2016-Apr-15 10:33N 36°34' W 001°16'1312.2
2016-Apr-15 09:28N 36°36' W 000°59'1212.1
2016-Apr-15 08:29N 36°38' W 000°45'3612.1
2016-Apr-15 05:33N 36°44' W 000°01'1312.4
2016-Apr-15 04:29N 36°46' E 000°15'1112.0
2016-Apr-15 03:33N 36°48' E 000°29'1411.9
2016-Apr-15 02:23N 36°51' E 000°46'1011.9
2016-Apr-15 01:33N 36°52' E 000°58'1111.3
2016-Apr-15 00:33N 36°54' E 001°12'1111.0
2016-Apr-14 23:33N 36°56' E 001°26'1211.5
2016-Apr-14 22:33N 36°58' E 001°40'3811.6
2016-Apr-14 19:18N 37°05' E 002°26'4311.5
2016-Apr-14 15:33N 37°12' E 003°20'1111.2
2016-Apr-14 14:33N 37°14' E 003°33'1111.0
2016-Apr-14 13:33N 37°16' E 003°47'27211.7
2016-Apr-13 14:14N 37°38' E 009°29'5311.1
2016-Apr-13 09:29N 37°35' E 010°35'9311.7
2016-Apr-13 01:32N 37°06' E 012°26'1212.0
2016-Apr-13 00:33N 37°02' E 012°40'1211.9
2016-Apr-12 23:33N 36°58' E 012°54'1211.8
2016-Apr-12 22:33N 36°54' E 013°08'1211.8
2016-Apr-12 21:33N 36°50' E 013°22'1212.3
2016-Apr-12 20:33N 36°46' E 013°37'1312.6
2016-Apr-12 19:33N 36°42' E 013°52'1212.0
2016-Apr-12 18:33N 36°36' E 014°04'1211.7
2016-Apr-12 17:33N 36°31' E 014°17'1212.3
2016-Apr-12 16:33N 36°26' E 014°32'1211.9
2016-Apr-12 15:32N 36°23' E 014°46'1111.4
2016-Apr-12 14:33N 36°20' E 014°59'1211.1
2016-Apr-12 13:30N 36°16' E 015°13'1111.2
2016-Apr-12 12:33N 36°13' E 015°26'1110.9
2016-Apr-12 11:32N 36°09' E 015°39'1111.1
2016-Apr-12 10:33N 36°06' E 015°52'1111.1
2016-Apr-12 09:33N 36°03' E 016°05'1111.0
2016-Apr-12 08:33N 35°59' E 016°18'1111.2
2016-Apr-12 07:33N 35°56' E 016°31'  
Track history (hours):
 
Tides and Currents Weather Stations Pressure Air Temp Water Temp Dewpoint Dewpoint Depression Visibility Wind Speed Wind Dir Waves Ship Positions

Tonic Sea

Last reported at 2016-Apr-19 10:30 UTC. Time now 2016-May-01 00:31 UTC.
Position N 28°14' W 016°07'.
Warning: this ship's position is 11 days out of date.

Length 229 m; draft 9.5 m.

Type: Cargo ship. MMSI: 636015479.

Date/timePositionNaut miles runAvg speedWind from/ knotsBaromVisibWave heightAir tempDewpointWater temp
2016-Apr-19 10:30N 28°14' W 016°07'1111.4
2016-Apr-19 09:33N 28°22' W 015°59'1211.6
2016-Apr-19 08:33N 28°31' W 015°51'1110.9
2016-Apr-19 07:33N 28°40' W 015°43'1010.5
2016-Apr-19 06:34N 28°47' W 015°35'1010.2
2016-Apr-19 05:33N 28°55' W 015°27'1010.3
2016-Apr-19 04:33N 29°02' W 015°19'  
2016-Apr-16 19:26N 35°59' W 005°32'910.1
2016-Apr-16 18:31N 36°03' W 005°22'5 4.1
2016-Apr-16 17:25N 36°07' W 005°22'0 0.1
2016-Apr-16 16:31N 36°07' W 005°22'0 0.0
2016-Apr-16 15:31N 36°07' W 005°22'0 0.0
2016-Apr-16 14:31N 36°07' W 005°22'0 0.1
2016-Apr-16 13:31N 36°07' W 005°22'0 0.0
2016-Apr-16 12:31N 36°07' W 005°22'0 0.0
2016-Apr-16 11:31N 36°07' W 005°22'0 0.1
2016-Apr-16 09:31N 36°08' W 005°22'1 0.7
2016-Apr-16 08:33N 36°07' W 005°22'2 1.6
2016-Apr-16 07:33N 36°06' W 005°21'4 4.1
2016-Apr-16 06:34N 36°07' W 005°16'2 1.6
2016-Apr-16 05:34N 36°08' W 005°15'1 1.1
2016-Apr-16 04:21N 36°07' W 005°15'18310.9
2016-Apr-15 11:33N 36°31' W 001°30'1211.8
2016-Apr-15 10:33N 36°34' W 001°16'1312.2
2016-Apr-15 09:28N 36°36' W 000°59'1212.1
2016-Apr-15 08:29N 36°38' W 000°45'3612.1
2016-Apr-15 05:33N 36°44' W 000°01'1312.4
2016-Apr-15 04:29N 36°46' E 000°15'1112.0
2016-Apr-15 03:33N 36°48' E 000°29'1411.9
2016-Apr-15 02:23N 36°51' E 000°46'1011.9
2016-Apr-15 01:33N 36°52' E 000°58'1111.3
2016-Apr-15 00:33N 36°54' E 001°12'1111.0
2016-Apr-14 23:33N 36°56' E 001°26'1211.5
2016-Apr-14 22:33N 36°58' E 001°40'3811.6
2016-Apr-14 19:18N 37°05' E 002°26'4311.5
2016-Apr-14 15:33N 37°12' E 003°20'1111.2
2016-Apr-14 14:33N 37°14' E 003°33'1111.0
2016-Apr-14 13:33N 37°16' E 003°47'27211.7
2016-Apr-13 14:14N 37°38' E 009°29'5311.1
2016-Apr-13 09:29N 37°35' E 010°35'9311.7
2016-Apr-13 01:32N 37°06' E 012°26'1212.0
2016-Apr-13 00:33N 37°02' E 012°40'1211.9
2016-Apr-12 23:33N 36°58' E 012°54'1211.8
2016-Apr-12 22:33N 36°54' E 013°08'1211.8
2016-Apr-12 21:33N 36°50' E 013°22'1212.3
2016-Apr-12 20:33N 36°46' E 013°37'1312.6
2016-Apr-12 19:33N 36°42' E 013°52'1212.0
2016-Apr-12 18:33N 36°36' E 014°04'1211.7
2016-Apr-12 17:33N 36°31' E 014°17'1212.3
2016-Apr-12 16:33N 36°26' E 014°32'1211.9
2016-Apr-12 15:32N 36°23' E 014°46'1111.4
2016-Apr-12 14:33N 36°20' E 014°59'1211.1
2016-Apr-12 13:30N 36°16' E 015°13'1111.2
2016-Apr-12 12:33N 36°13' E 015°26'1110.9
2016-Apr-12 11:32N 36°09' E 015°39'1111.1
2016-Apr-12 10:33N 36°06' E 015°52'1111.1
2016-Apr-12 09:33N 36°03' E 016°05'1111.0
2016-Apr-12 08:33N 35°59' E 016°18'1111.2
2016-Apr-12 07:33N 35°56' E 016°31'  

Dump ship's entire track history